Questo sito fa uso di cookie per migliorare l’esperienza di navigazione degli utenti e per raccogliere informazioni sull’utilizzo del sito stesso. Proseguendo nella navigazione si accetta l’uso dei cookie; in caso contrario è possibile abbandonare il sito.

[source: ADDS]
METAR
LIPA 240455Z 35004KT 7000 FEW010 BKN020 08/07 Q1021 RMK BKN VIS MIN 5000SW WIND THR05 03002KT WIND THR23 01002KT A3018 WHT =
LIPB 240550Z 00000KT 9000 FEW045 OVC100 09/09 Q1024 =
LIPC 240455Z 25002KT CAVOK 08/07 Q1021 RMK SCT SCT200 VIS MIN 9999 WIND THR11 00000KT WIND THR29 26005KT BLU =
LIPE 240550Z VRB01KT 4000 BR NSC 09/08 Q1022 =
LIPH 240550Z AUTO 02003KT 3000 BR NCD 09/09 Q1022 =
LIPI 240455Z /////KT 1500 BR SCT005 06/04 Q1021 RMK SCT VIS MIN 1500 WIND THR06 04002KT WIND THR24 07002KT AMB =
LIPL 240455Z /////KT 9999 BKN070 10/09 Q1020 RMK BKN VIS MIN 9999 WIND THR31 33002KT BLU =
LIPO 240450Z 28005KT CAVOK 11/09 Q1021 =
LIPQ 240550Z 10002KT CAVOK 06/05 Q1022 =
LIPR 240545Z 30002KT CAVOK 09/09 Q1021 =
LIPS 240455Z 03006KT 2000 BR NSC 09/07 Q1021 RMK SKC VIS MIN 2000 WIND THR26 02005KT WIND THR08 03007KT YLO =
LIPX 240550Z VRB01KT 9999 SCT080 11/09 Q1022 =
LIPY 240450Z 15003KT 120V190 CAVOK 08/06 Q1021 =
LIPZ 240550Z 35005KT 320V040 0250 R04R/1400D FG NSC 07/07 Q1022 NOSIG =
LIVC 240455Z 21013KT 9999 SCT001 SCT028 03/01 Q1022 RMK OVC MON LIB VAL NIL VIS MIN 9999 =
LIVE 240455Z 00000KT 8000 OVC010 02/01 Q1021 RMK OVC VIS MIN 8000 =
LIVF 240455Z 20005KT CAVOK 11/07 Q1021 RMK BKN BKN200 MON LIB VAL NIL VIS MIN 9999 =
LIVP 240455Z 00000KT 0000 FZFG VV/// M00/M01 Q1021 RMK MON INVIS VAL INVIS VIS MIN 0000 =
LIVR 240455Z 03006KT 4000 BR SCT025 00/M04 Q1022 RMK BKN BKN080 MON LIB VIS MIN 4000 =
LIVT 240455Z 00000KT CAVOK 09/07 Q1020 RMK BKN BKN200 QUK / QUL / VIS MAR 10 KM VIS MIN 9999 =
LIMC 240550Z 35009KT 9999 BKN025 OVC040 10/09 Q1023 NOSIG =
LIME 240550Z 01004KT 9999 SCT040 BKN060 10/09 Q1022 NOSIG =
LIMF 240550Z 31006KT 9999 -RA BKN030 BKN050 10/07 Q1022 RERA =
LIMH 240455Z /////KT 0100 -SN FZFG VV/// M07/M10 Q1020 RMK MON INVIS VAL INVIS VIS MIN 0100 =
LIMJ 240550Z VRB02KT 9999 BKN040 BKN070 13/12 Q1021 =
LIMK 240455Z 36013KT 320V040 0100 -RA FG VV001 06/06 Q1019 RMK VAL INVIS VIS MIN 0100 =
LIML 240550Z 02004KT 9999 FEW035 BKN070 11/10 Q1022 NOSIG =
LIMN 240455Z 35010KT 9999 BKN030 09/08 Q1021 RMK OVC SCT070 VIS MIN 9999 BLU =
LIMS 240455Z 15001KT 2200 -RA BR FEW023 SCT035 BKN060 10/10 Q1019 RMK OVC VIS MIN 2200 WIND THR30 13001KT YLO =
LIMU 240455Z 01009KT 9999 -RA FEW015 BKN016 10/09 Q1020 RMK OVC QUK / QUL / VIS MAR 20 KM VIS MIN 9999 =
TAF
TAF LIPA 240500Z 2406/2415 VRB03KT 7000 BKN040 TEMPO 2406/2408 5000 BR =
TAF LIPB 240500Z 2406/2506 VRB05KT 9999 SCT030 =
TAF LIPC 240500Z 2406/2415 VRB03KT CAVOK BECMG 2410/2412 09010KT =
TAF LIPE 240500Z 2406/2506 VRB05KT 7000 SCT030 BECMG 2418/2420 3000 BR TEMPO 2500/2506 0500 FG BKN003 =
TAF LIPH 240500Z 2406/2506 VRB05KT 3000 BR BKN010 BECMG 2407/2409 8000 SCT030 BECMG 2502/2504 05010KT =
TAF LIPI 240500Z 2406/2415 VRB03KT 5000 BR SCT070 TEMPO 2406/2408 1200 BR SCT005 =
TAF LIPL 240500Z 2406/2415 11005KT 9999 SCT080 PROB40 TEMPO 2406/2409 4000 RA BR SCT020 BKN060 =
TAF LIPO 240500Z 2406/2506 VRB05KT 8000 SCT025 SCT060 =
TAF LIPQ 240500Z 2406/2506 VRB05KT 9999 SCT030 BECMG 2500/2502 08012G25KT =
TAF LIPR 240500Z 2406/2415 VRB03KT CAVOK BECMG 2410/2412 09010KT =
TAF LIPS 240500Z 2406/2415 06005KT 7000 SCT060 TEMPO 2406/2408 1500 BR =
TAF LIPX 240500Z 2406/2415 VRB05KT 8000 SCT020 SCT060 =
TAF LIPY 240500Z 2406/2506 VRB05KT 9999 FEW040 BECMG 2420/2422 4000 BR =
TAF LIPZ 240500Z 2406/2512 04007KT 1200 BCFG BKN005 BECMG 2408/2411 15010KT 8000 BECMG 2502/2504 05012KT =
TAF LIMC 240500Z 2406/2512 01007KT 9999 BKN025 BKN050 TEMPO 2406/2409 4000 RA TEMPO 2500/2507 3000 BCFG TEMPO 2509/2512 4000 SHRA =
TAF LIME 240500Z 2406/2506 VRB05KT 9999 SCT030 BKN070 TEMPO 2406/2409 RA BKN012 BKN040 TEMPO 2502/2506 3000 BR =
TAF LIMF 240500Z 2406/2506 VRB05KT 7000 RA BKN012 BKN040 BECMG 2414/2416 NSW BKN025 TEMPO 2503/2506 4000 SHRA =
TAF LIMJ 240500Z 2406/2506 12012KT 9999 RA BKN010 BKN035 BECMG 2408/2410 35012KT NSW SCT025 SCT060 =
TAF LIML 240500Z 2406/2506 VRB05KT 9999 SCT025 BKN070 TEMPO 2406/2409 RA BKN012 BKN040 BECMG 2420/2422 3500 BR TEMPO 2502/2506 1200 BCFG =
TAF LIMN 240500Z 2406/2415 35008KT 9999 BKN030 TEMPO 2406/2412 4000 RA BR SCT020 BKN030 =
TAF LIMS 240500Z 2406/2415 09005KT 6000 SCT020 BKN060 TEMPO 2406/2412 2000 RA BR =
SR / SS: 05:06 / 17:30 UTC (Effemeridi Aeroporto di Padova - LIPU 2017-03-24)

Immagini e previsioni meteo non aeronautiche

 

 

Immagini dal Radar Meteorologico del sito ARPAV. Orario UTC.

 

Immagine dal sito Meteo Sat Online

 

Legenda codici ICAO del nord Italia

 

In ordine di codice   In ordine di località
LIMC
Milano / Malpensa LIMG Albenga
LIME Bergamo / Orio Al Serio LIPA Aviano
LIMF Torino / Caselle LIME Bergamo / Orio Al Serio
LIMG Albenga LIPE Bologna / Borgo Panigale
LIMH Pian Rosa LIPB Bolzano
LIMJ Genova / Sestri LIPL Brescia / Ghedi
LIMK Torino / Bric Della Croce LIPO Brescia / Montichiari
LIML Milano / Linate LIMU Capo Mele
LIMN Novara / Cameri LIPC Cervia
LIMO Monte Bisbino LIVD Dobbiaco
LIMS Piacenza LIPP Dova Area Control Center
LIMT Passo Della Cisa LIPY Falconara
LIMU Capo Mele LIPF Ferrara
LIMV Passo Dei Giovi LIPK Forli
LIMY Monte Malanotte LIVF Frontone
LIPA Aviano LIMJ Genova / Sestri
LIPB Bolzano LIML Milano / Linate
LIPC Cervia
LIMC
Milano / Malpensa
LIPD Udine / Campoformido LIMO Monte Bisbino
LIPE Bologna / Borgo Panigale LIVC Monte Cimone
LIPF Ferrara LIMY Monte Malanotte
LIPH Treviso / S. Angelo LIMN Novara / Cameri
LIPI Udine / Rivolto LIPU Padova
LIPK Forli LIVP Paganella
LIPL Brescia / Ghedi LIMV Passo Dei Giovi
LIPO Brescia / Montichiari LIMT Passo Della Cisa
LIPP Dova Area Control Center LIVR Passo Rolle
LIPQ Ronchi Dei Legionari LIMS Piacenza
LIPR Rimini LIMH Pian Rosa
LIPS Treviso / Istrana LIVM Punta Marina
LIPT Vicenza LIVE Resia Pass
LIPU Padova LIPR Rimini
LIPX Verona / Villafranca LIPQ Ronchi Dei Legionari
LIPY Falconara LIVO Tarvisio
LIPZ Venezia / Tessera LIMK Torino / Bric Della Croce
LIVC Monte Cimone LIMF Torino / Caselle
LIVD Dobbiaco LIPS Treviso / Istrana
LIVE Resia Pass LIPH Treviso / S. Angelo
LIVF Frontone LIVT
Trieste
LIVM Punta Marina LIPD Udine / Campoformido
LIVO Tarvisio LIPI Udine / Rivolto
LIVP Paganella LIPZ Venezia / Tessera
LIVR Passo Rolle LIPX Verona / Villafranca
LIVT Trieste LIPT Vicenza

 

 

 

 

 

 

 

 

 

 

 

 

 

 

 

 

 

 

 

 

 

 

 

 

 

 

 

 

 

 

 

 

 

 

 

 

 

 

 

 

 

 

 

 

 

 

 

 

 

 

 

 

 

 

 

 

 

 

 

 

L'Aeroclub di Padova si limita a riportare informazioni fornite da terze parti, e non ha quindi alcuna responsabilità sul contenuto. Per la pianificazione dei propri voli si raccomanda l'utilizzo delle fonti ufficiali.

Copyright 2011. Free joomla templates | © Aeroclub Padova - Scuola di Volo, Ditta di manutenzione, CAMO Via Sorio, 89 - 35141 Padova Tel. 049 8718599 Fax 049 8717699 info@aeroclubpadova.it